Home > Products > Valid Products > MTR

000
SAUS46 KMFR 261557
MTRSXT
METAR KSXT 261556Z AUTO 14010KT 10SM CLR 07/04 A3026 RMK AO2 SLP243
T00670044





000
SAUS46 KMFR 261457
MTRSXT
METAR KSXT 261456Z AUTO 14013KT 10SM CLR 07/04 A3025 RMK AO2 SLP241
T00670044 58014





000
SAUS46 KMFR 261357
MTRSXT
METAR KSXT 261356Z AUTO 16014KT 10SM CLR 07/06 A3027 RMK AO2 SLP245
T00720061





000
SAUS46 KMFR 261257
MTRSXT
METAR KSXT 261256Z AUTO 17013KT 10SM CLR 08/07 A3028 RMK AO2 SLP250
T00780067





000
SAUS46 KMFR 261157
MTRSXT
METAR KSXT 261156Z AUTO 15010KT 10SM CLR 08/07 A3029 RMK AO2 SLP252
T00780067 10078 20067 58010





000
SAUS46 KMFR 261057
MTRSXT
METAR KSXT 261056Z AUTO 15010KT 10SM CLR 07/07 A3032 RMK AO2 SLP259
T00720067





000
SAUS46 KMFR 260957
MTRSXT
METAR KSXT 260956Z AUTO 16008KT 10SM CLR 08/07 A3033 RMK AO2 SLP261
T00780067





000
SAUS46 KMFR 260957
MTRSXT
METAR KSXT 260956Z AUTO 16008KT 10SM CLR 08/07 A3033 RMK AO2 SLP261
T00780067





000
SAUS46 KMFR 260900
MTRMHS
METAR KMHS 260856Z AUTO 00000KT 4SM BR CLR 01/M01 A3039 RMK AO2
SLP312 T00111006 58007





000
SAUS46 KMFR 260857
MTRSXT
METAR KSXT 260856Z AUTO 15010KT 10SM CLR 07/07 A3033 RMK AO2 SLP260
T00720067 58007





000
SAUS46 KMFR 260757
MTRSXT
METAR KSXT 260756Z AUTO 15011KT 10SM CLR 07/07 A3035 RMK AO2 SLP268
T00720067 401170061





000
SAUS46 KMFR 260657
MTRSXT
METAR KSXT 260656Z AUTO 15012KT 10SM FEW001 07/07 A3035 RMK AO2
SLP271 T00720072





000
SAUS46 KMFR 260652
MTRSXT
SPECI KSXT 260651Z AUTO 15012KT 10SM FEW001 07/07 A3035 RMK AO2





000
SAUS46 KMFR 260557
MTRSXT
METAR KSXT 260556Z AUTO 15011KT 10SM CLR 07/07 A3036 RMK AO2 SLP278
T00720067 10089 20072 56010





000
SAUS46 KMFR 260457
MTRSXT
METAR KSXT 260456Z AUTO 15010KT 10SM CLR 07/07 A3037 RMK AO2 SLP279
T00720067





000
SAUS46 KMFR 260357
MTRSXT
METAR KSXT 260356Z AUTO 14008KT 10SM CLR 08/06 A3038 RMK AO2 SLP284
T00780061





000
SAUS46 KMFR 260357
MTRSXT
METAR KSXT 260356Z AUTO 14008KT 10SM CLR 08/06 A3038 RMK AO2 SLP284
T00780061





000
SAUS46 KMFR 260347
MTRSXT
SPECI KSXT 260346Z AUTO 15008KT 10SM FEW015 08/06 A3039 RMK AO2
T00780061





000
SAUS46 KMFR 260347
MTRSXT
SPECI KSXT 260346Z AUTO 15008KT 10SM FEW015 08/06 A3039 RMK AO2
T00780061





000
SAUS46 KMFR 260315
MTRSXT
SPECI KSXT 260313Z AUTO 15006KT 10SM BKN015 08/07 A3040 RMK AO2
T00830067





000
SAUS46 KMFR 260257
MTRSXT
METAR KSXT 260256Z AUTO 16007KT 10SM CLR 08/07 A3039 RMK AO2 SLP291
T00780067 56005





000
SAUS46 KMFR 260157
MTRSXT
METAR KSXT 260156Z AUTO 16006KT 10SM CLR 08/07 A3040 RMK AO2 SLP290
T00830067





000
SAUS46 KMFR 260057
MTRSXT
METAR KSXT 260056Z AUTO 14008KT 10SM CLR 08/07 A3040 RMK AO2 SLP292
T00780072





000
SAUS46 KMFR 252357
MTRSXT
METAR KSXT 252356Z AUTO 13007KT 10SM CLR 09/08 A3041 RMK AO2 SLP290
T00890078 10117 20089 56007





000
SAUS46 KMFR 252257
MTRSXT
METAR KSXT 252256Z AUTO 15004KT 10SM CLR 10/08 A3041 RMK AO2 SLP290
T01000078





000
SAUS46 KMFR 252200
MTRMHS
METAR KMHS 252156Z AUTO 00000KT 10SM CLR 16/05 A3042 RMK AO2 SLP320
T01610050





000
SAUS46 KMFR 252157
MTRSXT
METAR KSXT 252156Z AUTO 00000KT 10SM CLR 10/08 A3042 RMK AO2 SLP297
T01000078





000
SAUS46 KMFR 252157
MTRSXT
METAR KSXT 252156Z AUTO 00000KT 10SM CLR 10/08 A3042 RMK AO2 SLP297
T01000078





000
SAUS46 KMFR 252120
MTRSXT
SPECI KSXT 252119Z AUTO VRB03KT 10SM FEW022 11/07 A3043 RMK AO2
T01110072





000
SAUS46 KMFR 252057
MTRSXT
METAR KSXT 252056Z AUTO 23003KT 10SM BKN021 11/07 A3044 RMK AO2
SLP297 T01110067 58009





000
SAUS46 KMFR 252005
MTRSXT
SPECI KSXT 252004Z AUTO 00000KT 10SM SCT003 OVC022 10/08 A3045 RMK
AO2 T01000083





000
SAUS46 KMFR 251957
MTRSXT
METAR KSXT 251956Z AUTO 20004KT 6SM BR BKN002 BKN022 11/09 A3045 RMK
AO2 SLP305 T01060089





000
SAUS46 KMFR 251944
MTRSXT
SPECI KSXT 251943Z AUTO 00000KT 10SM BKN002 OVC023 09/08 A3046 RMK
AO2 T00940083





000
SAUS46 KMFR 251936
MTRSXT
SPECI KSXT 251935Z AUTO 21004KT 2SM BR BKN002 OVC023 10/09 A3046 RMK
AO2 T01000089





000
SAUS46 KMFR 251924
MTRSXT
SPECI KSXT 251922Z AUTO 22003KT 1 1/4SM BR BKN002 OVC023 09/08 A3047
RMK AO2 VIS 1/2V5 T00940083





000
SAUS46 KMFR 251914
MTRSXT
SPECI KSXT 251912Z AUTO 21003KT 2SM BR BKN002 09/09 A3047 RMK AO2
VIS 1/2V5 T00940089 $





000
SAUS46 KMFR 251909
MTRSXT
SPECI KSXT 251908Z AUTO 21004KT 1/2SM FG BKN002 BKN024 09/09 A3047
RMK AO2 T00890089 $





000
SAUS46 KMFR 251857
MTRSXT
METAR KSXT 251856Z AUTO 20003KT 10SM SCT002 BKN024 09/09 A3047 RMK
AO2 SLP314 T00940094





000
SAUS46 KMFR 251852
MTRSXT
SPECI KSXT 251851Z AUTO 21004KT 2SM BR FEW002 BKN024 09/09 A3047 RMK
AO2





000
SAUS46 KMFR 251833
MTRSXT
SPECI KSXT 251832Z AUTO VRB04KT 1/2SM FG SCT001 OVC024 09/09 A3047
RMK AO2 T00940089





000
SAUS46 KMFR 251757
MTRSXT
METAR KSXT 251756Z AUTO 19005KT 1/4SM FG BKN001 OVC025 08/08 A3047
RMK AO2 SLP317 T00830083 10089 20061 51005





000
SAUS46 KMFR 251657
MTRSXT
METAR KSXT 251656Z AUTO 20006KT M1/4SM FG BKN001 OVC025 08/08 A3046
RMK AO2 SLP315 T00780078





000
SAUS46 KMFR 251657
MTRSXT
METAR KSXT 251656Z AUTO 20006KT M1/4SM FG BKN001 OVC025 08/08 A3046
RMK AO2 SLP315 T00780078





000
SAUS46 KMFR 251557
MTRSXT
METAR KSXT 251556Z AUTO 20007KT M1/4SM FG VV001 07/07 A3046 RMK AO2
SLP314 T00720072





000
SAUS46 KMFR 251457
MTRSXT
METAR KSXT 251456Z AUTO 21007KT 1/4SM FG VV001 07/07 A3045 RMK AO2
SLP313 T00670067 51006





000
SAUS46 KMFR 251455
MTRSXT
SPECI KSXT 251454Z AUTO 21008KT 1/4SM FG VV001 07/07 A3045 RMK AO2





000
SAUS46 KMFR 251414
MTRSXT
SPECI KSXT 251413Z AUTO VRB05KT 1/4SM FG VV002 07/07 A3045 RMK AO2
T00720072





000
SAUS46 KMFR 251357
MTRSXT
METAR KSXT 251356Z AUTO 22004KT 1/4SM FG VV001 07/07 A3044 RMK AO2
SLP310 T00670067





000
SAUS46 KMFR 251349
MTRSXT
SPECI KSXT 251348Z AUTO 23005KT 1/4SM FG VV001 07/07 A3044 RMK AO2
T00670067





000
SAUS46 KMFR 251257
MTRSXT
METAR KSXT 251256Z AUTO 21006KT 1/4SM FG VV002 07/07 A3043 RMK AO2
SLP305 T00720072





000
SAUS46 KMFR 251157
MTRSXT
METAR KSXT 251156Z AUTO 25005KT 1/4SM FG VV002 08/08 A3044 RMK AO2
SLP303 P0001 60003 70003 T00830078 10083 20056 50003





000
SAUS46 KMFR 251101 COR
MTRMHS
METAR KMHS 251056Z AUTO 00000KT 6SM BR CLR 01/M01 A3046 RMK AO2
SLP341 T00111006





000
SAUS46 KMFR 251101 COR
MTRMHS
METAR KMHS 251056Z AUTO 00000KT 6SM BR CLR 01/M01 A3046 RMK AO2
SLP341 T00111006





000
SAUS46 KMFR 251100
MTRMHS
METAR KMHS 251056Z AUTO 00000KT 6SM BR CLR 01/M01 A3046 RMK AO2
SLP341 T00111006





000
SAUS46 KMFR 251100
MTRMHS
METAR KMHS 251056Z AUTO 00000KT 6SM BR CLR 01/M01 A3046 RMK AO2
SLP341 T00111006





000
SAUS46 KMFR 251057
MTRSXT
METAR KSXT 251056Z AUTO 26005KT 1/4SM FG VV002 08/08 A3044 RMK AO2
RAE13B35E48 SLP305 P0002 T00780078





000
SAUS46 KMFR 251057
MTRSXT
METAR KSXT 251056Z AUTO 26005KT 1/4SM FG VV002 08/08 A3044 RMK AO2
RAE13B35E48 SLP305 P0002 T00780078





000
SAUS46 KMFR 251047
MTRSXT
SPECI KSXT 251046Z AUTO 25005KT 1/4SM -RA FG VV002 07/07 A3044 RMK
AO2 RAE13B35 P0002 T00720072





000
SAUS46 KMFR 251047
MTRSXT
SPECI KSXT 251046Z AUTO 25005KT 1/4SM -RA FG VV002 07/07 A3044 RMK
AO2 RAE13B35 P0002 T00720072





000
SAUS46 KMFR 251038
MTRSXT
SPECI KSXT 251037Z AUTO VRB06KT 3/4SM -RA BR OVC002 07/07 A3045 RMK
AO2 RAE13B35 P0002 T00670067





000
SAUS46 KMFR 251035
MTRSXT
SPECI KSXT 251034Z AUTO 23007KT 1 3/4SM BR OVC002 07/07 A3045 RMK
AO2 RAE13 P0002 T00670067





000
SAUS46 KMFR 251009
MTRSXT
SPECI KSXT 251008Z AUTO 24007KT 3SM -RA BR OVC004 07/07 A3044 RMK
AO2 P0001 T00720072





000
SAUS46 KMFR 251000
MTRSXT
SPECI KSXT 250959Z AUTO 24006KT 2 1/2SM -RA BR SCT002 BKN006 OVC026
07/06 A3044 RMK AO2 P0001 T00670061





000
SAUS46 KMFR 250957
MTRSXT
METAR KSXT 250956Z AUTO 23007KT 3SM -RA BR BKN004 BKN026 OVC038
07/06 A3044 RMK AO2 RAB54 SLP304 P0000 T00670056





000
SAUS46 KMFR 250955
MTRSXT
SPECI KSXT 250954Z AUTO 22006KT 4SM -RA BR BKN004 BKN015 OVC024
07/06 A3044 RMK AO2 RAB54 CIG 003V007 P0000





000
SAUS46 KMFR 250939
MTRSXT
SPECI KSXT 250938Z AUTO 22005KT 10SM FEW008 BKN025 OVC037 07/06
A3043 RMK AO2 T00720056





000
SAUS46 KMFR 250932
MTRSXT
SPECI KSXT 250930Z AUTO 21009KT 10SM SCT008 BKN014 OVC024 07/06
A3042 RMK AO2 T00720056





000
SAUS46 KMFR 250920
MTRSXT
SPECI KSXT 250919Z AUTO 21008KT 10SM SCT007 OVC016 07/05 A3042 RMK
AO2 T00670050





000
SAUS46 KMFR 250912
MTRSXT
SPECI KSXT 250911Z AUTO 21007KT 9SM SCT007 BKN011 OVC023 07/06 A3042
RMK AO2 T00720056





000
SAUS46 KMFR 250858
MTRSXT
METAR KSXT 250856Z AUTO 21009KT 10SM SCT015 OVC022 07/05 A3043 RMK
AO2 SLP299 T00720050 50004





000
SAUS46 KMFR 250839
MTRSXT
SPECI KSXT 250838Z AUTO 21009G15KT 10SM SCT009 OVC016 07/04 A3043
RMK AO2 T00720044





000
SAUS46 KMFR 250809
MTRSXT
SPECI KSXT 250807Z AUTO 21010KT 10SM BKN009 BKN016 07/04 A3043 RMK
AO2 T00720039





000
SAUS46 KMFR 250757
MTRSXT
METAR KSXT 250756Z AUTO 21010KT 10SM SCT008 BKN015 07/04 A3044 RMK
AO2 SLP307 T00670044 400890011





000
SAUS46 KMFR 250731
MTRSXT
SPECI KSXT 250730Z AUTO 21009KT 10SM SCT008 SCT015 07/04 A3043 RMK
AO2 T00670044





000
SAUS46 KMFR 250657
MTRSXT
METAR KSXT 250656Z AUTO 21008KT 10SM FEW017 06/04 A3042 RMK AO2
SLP305 T00610039





000
SAUS46 KMFR 250557
MTRSXT
METAR KSXT 250556Z AUTO 21010G17KT 10SM BKN050 06/03 A3041 RMK AO2
SLP304 T00610028 10072 20061 51006





000
SAUS46 KMFR 250457
MTRSXT
METAR KSXT 250456Z AUTO 20010KT 10SM FEW039 BKN050 06/02 A3041 RMK
AO2 SLP307 T00610022





000
SAUS46 KMFR 250357
MTRSXT
METAR KSXT 250356Z AUTO 20012G17KT 10SM FEW014 BKN036 OVC049 07/02
A3040 RMK AO2 SLP304 T00670022





000
SAUS46 KMFR 250357
MTRSXT
METAR KSXT 250356Z AUTO 20012G17KT 10SM FEW014 BKN036 OVC049 07/02
A3040 RMK AO2 SLP304 T00670022





000
SAUS46 KMFR 250348
MTRSXT
SPECI KSXT 250347Z AUTO 20011KT 10SM FEW016 BKN034 BKN042 07/02
A3040 RMK AO2 T00670022





000
SAUS46 KMFR 250258
MTRSXT
METAR KSXT 250256Z AUTO 20010KT 10SM OVC016 07/02 A3039 RMK AO2
SLP304 T00670022 53012





000
SAUS46 KMFR 250215
MTRSXT
SPECI KSXT 250214Z AUTO 19011KT 10SM BKN018 OVC050 07/02 A3038 RMK
AO2 T00670017





000
SAUS46 KMFR 250157
MTRSXT
METAR KSXT 250156Z AUTO 19011KT 10SM OVC050 07/02 A3037 RMK AO2
SLP294 T00670017





000
SAUS46 KMFR 250057
MTRSXT
METAR KSXT 250056Z AUTO 18012KT 10SM OVC050 07/01 A3036 RMK AO2
SLP294 T00670006





000
SAUS46 KMFR 242357
MTRSXT
METAR KSXT 242356Z AUTO 19012KT 10SM CLR 07/00 A3035 RMK AO2 SLP288
T00720000 10089 20044 55003





000
SAUS46 KMFR 242257
MTRSXT
METAR KSXT 242256Z AUTO 18011KT 10SM BKN090 08/M01 A3035 RMK AO2
SLP287 T00781006





000
SAUS46 KMFR 242157
MTRSXT
METAR KSXT 242156Z AUTO 19010KT 10SM OVC090 09/M01 A3035 RMK AO2
SLP282 T00891006





000
SAUS46 KMFR 242057
MTRSXT
METAR KSXT 242056Z AUTO 18010KT 10SM OVC095 08/M02 A3037 RMK AO2
SLP290 T00831017 58001





000
SAUS46 KMFR 241957
MTRSXT
METAR KSXT 241956Z AUTO 16010KT 10SM FEW026 OVC095 06/M01 A3037 RMK
AO2 SLP295 T00611011





000
SAUS46 KMFR 241857
MTRSXT
METAR KSXT 241856Z AUTO 14009KT 10SM OVC033 06/M01 A3038 RMK AO2
SLP301 T00611011





000
SAUS46 KMFR 241757
MTRSXT
METAR KSXT 241756Z AUTO 14011KT 10SM CLR 04/M01 A3037 RMK AO2 SLP298
T00441011 10050 20011 51010





000
SAUS46 KMFR 241657
MTRSXT
METAR KSXT 241656Z AUTO 13011KT 10SM CLR 03/M02 A3036 RMK AO2 SLP298
T00281017





000
SAUS46 KMFR 241557
MTRSXT
METAR KSXT 241556Z AUTO 13012KT 10SM CLR 02/M02 A3035 RMK AO2 SLP295
T00171017





000
SAUS46 KMFR 241457
MTRSXT
METAR KSXT 241456Z AUTO 12012G19KT 10SM CLR 01/M02 A3034 RMK AO2
SLP290 T00111022 55001





000
SAUS46 KMFR 241357
MTRSXT
METAR KSXT 241356Z AUTO 12011KT 10SM CLR 02/M02 A3034 RMK AO2 SLP287
T00171022





000
SAUS46 KMFR 241257
MTRSXT
METAR KSXT 241256Z AUTO 13012KT 10SM CLR 01/M02 A3034 RMK AO2 SLP293
T00111017 $





000
SAUS46 KMFR 241157
MTRSXT
METAR KSXT 241156Z AUTO 12011KT 10SM CLR 02/M02 A3034 RMK AO2 SLP291
T00171017 10028 20011 50003 $





000
SAUS46 KMFR 241057
MTRSXT
METAR KSXT 241056Z AUTO 13011KT 10SM CLR 01/M01 A3035 RMK AO2 SLP294
T00111006 $





000
SAUS46 KMFR 240957
MTRSXT
METAR KSXT 240956Z AUTO 12007KT 10SM CLR 02/M01 A3035 RMK AO2 SLP290
T00221011 $





000
SAUS46 KMFR 240857
MTRSXT
METAR KSXT 240856Z AUTO 12008KT 10SM CLR 02/00 A3033 RMK AO2 SLP285
T00170000 58001 $





000
SAUS46 KMFR 240757
MTRSXT
METAR KSXT 240756Z AUTO 13010KT 10SM CLR 02/M01 A3034 RMK AO2 SLP287
T00221006 400500017 $





000
SAUS46 KMFR 240657
MTRSXT
METAR KSXT 240656Z AUTO 12007KT 10SM CLR 02/M01 A3033 RMK AO2 SLP290
T00171006 $





000
SAUS46 KMFR 240557
MTRSXT
METAR KSXT 240556Z AUTO 13008KT 10SM CLR 02/M01 A3033 RMK AO2 SLP290
T00221006 10050 20022 50000 $





000
SAUS46 KMFR 240457
MTRSXT
METAR KSXT 240456Z AUTO 12005KT 10SM CLR 03/M02 A3034 RMK AO2 SLP291
T00281017 $





000
SAUS46 KMFR 240357
MTRSXT
METAR KSXT 240356Z AUTO 00000KT 10SM CLR 03/M02 A3033 RMK AO2 SLP288
T00331022 $





000
SAUS46 KMFR 240257
MTRSXT
METAR KSXT 240256Z AUTO 36004KT 10SM CLR 04/M03 A3033 RMK AO2 SLP288
T00391033 51007 $





000
SAUS46 KMFR 240157
MTRSXT
METAR KSXT 240156Z AUTO 33003KT 10SM CLR 04/M04 A3033 RMK AO2 SLP284
T00441039 $





000
SAUS46 KMFR 240157
MTRSXT
METAR KSXT 240156Z AUTO 33003KT 10SM CLR 04/M04 A3033 RMK AO2 SLP284
T00441039 $





000
SAUS46 KMFR 240057
MTRSXT
METAR KSXT 240056Z AUTO 00000KT 10SM CLR 03/M01 A3032 RMK AO2 SLP284
T00331006 $





000
SAUS46 KMFR 232357
MTRSXT
METAR KSXT 232356Z AUTO 14005KT 10SM CLR 03/01 A3031 RMK AO2 SLP279
T00330011 10044 20022 57005 $





000
SAUS46 KMFR 232257
MTRSXT
METAR KSXT 232256Z AUTO 14008KT 10SM CLR 04/02 A3031 RMK AO2 SLP278
T00440022 $





000
SAUS46 KMFR 232220
MTRSXT
SPECI KSXT 232219Z AUTO 14007KT 9SM FEW002 BKN090 04/02 A3031 RMK
AO2 T00390022 $





000
SAUS46 KMFR 232220
MTRSXT
SPECI KSXT 232219Z AUTO 14007KT 9SM FEW002 BKN090 04/02 A3031 RMK
AO2 T00390022 $





000
SAUS46 KMFR 232157
MTRSXT
METAR KSXT 232156Z AUTO 13004KT 10SM OVC095 04/02 A3032 RMK AO2
SLP281 T00390022 $





000
SAUS46 KMFR 232157
MTRSXT
METAR KSXT 232156Z AUTO 13004KT 10SM OVC095 04/02 A3032 RMK AO2
SLP281 T00390022 $





000
SAUS46 KMFR 232057
MTRSXT
METAR KSXT 232056Z AUTO 15006KT 10SM BKN110 04/02 A3032 RMK AO2
SLP282 T00440022 58006 $





000
SAUS46 KMFR 231957
MTRSXT
METAR KSXT 231956Z AUTO 14003KT 9SM FEW002 04/03 A3034 RMK AO2
SLP289 T00390028 $





000
SAUS46 KMFR 231957
MTRSXT
METAR KSXT 231956Z AUTO 14003KT 9SM FEW002 04/03 A3034 RMK AO2
SLP289 T00390028 $





000
SAUS46 KMFR 231945
MTRSXT
SPECI KSXT 231944Z AUTO 15004KT 10SM SCT002 03/03 A3034 RMK AO2
T00330028 $





000
SAUS46 KMFR 231938
MTRSXT
SPECI KSXT 231937Z AUTO VRB03KT 4SM BR BKN001 BKN110 03/03 A3035 RMK
AO2 T00330028 $





000
SAUS46 KMFR 231936
MTRSXT
SPECI KSXT 231935Z AUTO VRB03KT 1 1/2SM BR BKN001 BKN110 03/03 A3035
RMK AO2 T00330028 $





000
SAUS46 KMFR 231927
MTRSXT
SPECI KSXT 231926Z AUTO 13004KT 1/2SM FG BKN001 BKN110 03/03 A3035
RMK AO2 VIS 1/4V2 1/2 T00330028 $





000
SAUS46 KMFR 231922
MTRSXT
SPECI KSXT 231920Z AUTO 12004KT 1 1/4SM BR SCT001 BKN110 03/03 A3035
RMK AO2 T00330033 $





000
SAUS46 KMFR 231857
MTRSXT
METAR KSXT 231856Z AUTO 15004KT 10SM SCT001 03/03 A3034 RMK AO2
SLP291 T00280028 $





000
SAUS46 KMFR 231845
MTRSXT
SPECI KSXT 231843Z AUTO 15006KT 9SM BKN001 03/03 A3034 RMK AO2
T00330033 $





000
SAUS46 KMFR 231838
MTRSXT
SPECI KSXT 231836Z AUTO 13005KT 2 1/2SM BR OVC001 03/03 A3035 RMK
AO2 T00330033 $





000
SAUS46 KMFR 231833
MTRSXT
SPECI KSXT 231832Z AUTO 14006KT 1SM BR VV001 03/03 A3035 RMK AO2
T00280028 $





000
SAUS46 KMFR 231757
MTRSXT
METAR KSXT 231756Z AUTO 14008KT M1/4SM FG VV001 02/02 A3035 RMK AO2
SLP294 T00220022 10022 20017 50005 $





000
SAUS46 KMFR 231709
MTRSXT
SPECI KSXT 231707Z AUTO 14007KT M1/4SM FG VV001 02/02 A3035 RMK AO2
T00170017 $





000
SAUS46 KMFR 231657
MTRSXT
METAR KSXT 231656Z AUTO 14007KT M1/4SM FG BKN002 OVC110 02/02 A3035
RMK AO2 SLP296 T00170017 $





000
SAUS46 KMFR 231648
MTRSXT
SPECI KSXT 231647Z AUTO 14006KT 1/4SM FG BKN002 OVC120 02/02 A3035
RMK AO2 T00170017 $





000
SAUS46 KMFR 231634
MTRSXT
SPECI KSXT 231633Z AUTO 15007KT 3/4SM BR SCT002 OVC120 02/02 A3035
RMK AO2 T00170017 $





    US Dept of Commerce
    National Oceanic and Atmospheric Administration
    National Weather Service
    1325 East West Highway
    Silver Spring, MD 20910
    Page Author: NWS Internet Services Team
Disclaimer
Information Quality
Credits
Glossary
Privacy Policy
Freedom of Information Act (FOIA)
About Us
Career Opportunities